Airport Name : Holzdorf

Other Name : Holzdorf

ICAO : ETSH

IATA :

FAA :

Latitude : 51.767833

Longitude : 13.167667

Country : Germany

Local Date and Time : 29 Oct 2020 14:06

 

TAF (Terminal Aerodrome Forecast)

TAF ETSH 291111Z 2912/2921 25010G20KT 9999 NSW SCT030 SCT230 TEMPO 2912/2916 28015G28KT 6000 SHRA BKN020TCU

 

METAR (METeorological Aerodrome Report)

ETSH 291220Z 27016KT 9999 VCSH SCT040 12/05 Q1014 BLACKBLU+BLU+ TEMPO WHT

ETSH 291120Z 29013KT 9999 SCT030 12/04 Q1013 BLACKBLU+BLU+ TEMPO WHT

ETSH 291020Z 27014KT 9999 BKN025 12/06 Q1013 BLACKBLU BLU+ TEMPO WHT

ETSH 290920Z 25010KT 9999 FEW020 SCT045 BKN130 11/07 Q1012 BLACKBLU BLU+ TEMPO WHT

To Charter a Jet Click here.